首页
METAR-TAF:

METAR-TAF

机场 :

吉布提-安布利国际机场

吉布地, 吉布提

纬度: 11-33N, 经度: 043-10E, 海拔: 49米

当前天气观测

该预报发布于1小时和46分钟前的07:00 UTC
风速15节,风向西
温度 40°C
湿度 36%
气压 1006 hPa
能見度: 8000
少量云层高于13300英尺

METAR: HDAM 140700Z 27015KT 8000 HZ FEW133 40/22 Q1006

时间: 11:46 (08:46 UTC)

预报

该预报发布于3小时和46分钟前的05:00 UTC
预报有效从14日的 06点(UTC)到 15日的 06点(UTC)
风速12节,风向西
能見度: 8000
少量云层高于2300英尺
成为
从 14日的 12点(UTC)到 14日的 15点(UTC)
风速10节,风向
少量云层高于3000英尺, 积雨云.
成为
从 14日的 15点(UTC)到 14日的 18点(UTC)
风速3节,风向多变
成为
从 15日的 00点(UTC)到 15日的 06点(UTC)
风速14节,风向西
能見度: 8000
少量云层高于2300英尺

TAF: HDAM 140500Z 1406/1506 28012KT 8000 HZ FEW023 BECMG 1412/1415 08010KT FEW030CB BECMG 1415/1418 VRB03KT BECMG 1500/1506 28014KT 8000 HZ FEW023

超过4000个机场的气象观测和天气预报(METAR&TAF报告)。

可查询的气象台以黄色和红色小点在地图上表示。

将鼠标移到小点上方,可查看气象台名称。

然后点击查看天气观测和预报。

如需切换地图:点击带黑十字的绿色按钮放大地图;点击带横线的绿色按钮缩小地图;或者点击绿色箭头查看邻近地区的地图。


METAR-TAF: